NORTHEAST SUFFOLK  -  Winter Weather Advisory Winter Weather Advisory        NORTHERN NASSAU  -  Winter Weather Advisory Winter Weather Advisory        NORTHWEST SUFFOLK  -  Winter Weather Advisory Winter Weather Advisory        SOUTHEAST SUFFOLK  -  Winter Weather Advisory Winter Weather Advisory        SOUTHERN NASSAU  -  Winter Weather Advisory Winter Weather Advisory        SOUTHWEST SUFFOLK  -  Winter Weather Advisory Winter Weather Advisory      

Active alerts

Northern Nassau
  Details for Northern Nassau Winter Weather Advisory
Southern Nassau
  Details for Southern Nassau Winter Weather Advisory
Northwest Suffolk
  Details for Northwest Suffolk Winter Weather Advisory
Southwest Suffolk
  Details for Southwest Suffolk Winter Weather Advisory
Northeast Suffolk
  Details for Northeast Suffolk Winter Weather Advisory
Southeast Suffolk
  Details for Southeast Suffolk Winter Weather Advisory


WXM80 ListenWXM80 Stop

You find our weather info also at:

UK Metoffice

WeatherCloud

Weather Underground

Northeastern Weather Network

AWEKAS

Citizen Weather Observer Program (CWOP)

HAMweather, WeatherForYou, PWS Weather


Weather Underground History page Text

Daily Summary for April 25, 2017 Units:  English    Metric   Both
« Previous Day
Next Day »
Daily Weekly Monthly Yearly Custom
  High: Low: Average:
Temperature: 51.4 °F 47.9 °F 49.4 °F
Dew Point: 50.9 °F 46.6 °F 48.7 °F
Humidity: 98 % 94 % 97 %
Wind Speed: 11.7 mph 2.5 mph 7.5 mph
Wind Gust: 20.0 mph - -
Wind:- - East
Pressure: 30.11 in 29.85 in -
Precipitation: 0.61 in    
Historical Graphs
 
 
Tabular Data for April 25, 2017
Time Temperature Dew Point Pressure Wind Wind Speed Wind Gust Humidity Rainfall Rate (Hourly)
00:03 48.4 °F 46.8 °F 30.11 in ENE 3.4 mph 4.0 mph 94 % 0.00 in
00:08 48.4 °F 46.8 °F 30.11 in East 3.6 mph 6.9 mph 94 % 0.00 in
00:13 48.4 °F 46.8 °F 30.11 in ENE 2.5 mph 5.8 mph 94 % 0.00 in
00:18 48.4 °F 46.8 °F 30.11 in ENE 2.5 mph 4.0 mph 94 % 0.00 in
00:23 48.4 °F 46.8 °F 30.11 in ENE 3.0 mph 5.0 mph 94 % 0.00 in
00:28 48.4 °F 46.8 °F 30.11 in ENE 2.5 mph 3.5 mph 94 % 0.00 in
00:33 48.4 °F 46.8 °F 30.11 in NE 3.5 mph 4.6 mph 94 % 0.00 in
00:38 48.4 °F 46.8 °F 30.11 in ENE 3.6 mph 5.8 mph 94 % 0.00 in
00:43 48.4 °F 46.8 °F 30.11 in ENE 3.0 mph 8.0 mph 94 % 0.00 in
00:48 48.3 °F 46.7 °F 30.11 in ENE 2.7 mph 4.6 mph 94 % 0.00 in
00:53 48.3 °F 46.7 °F 30.11 in ENE 2.7 mph 4.6 mph 94 % 0.00 in
00:58 48.3 °F 46.7 °F 30.11 in ENE 4.4 mph 5.0 mph 94 % 0.00 in
01:03 48.3 °F 46.7 °F 30.10 in ENE 3.1 mph 4.6 mph 94 % 0.00 in
01:08 48.3 °F 46.9 °F 30.11 in ENE 3.3 mph 5.0 mph 95 % 0.00 in
01:13 48.3 °F 46.9 °F 30.11 in East 3.3 mph 8.0 mph 95 % 0.00 in
01:18 48.3 °F 46.9 °F 30.10 in ENE 4.7 mph 6.9 mph 95 % 0.00 in
01:23 48.2 °F 46.8 °F 30.10 in East 3.7 mph 6.9 mph 95 % 0.00 in
01:28 48.2 °F 46.8 °F 30.10 in ENE 4.0 mph 4.6 mph 95 % 0.00 in
01:33 48.2 °F 46.8 °F 30.10 in ENE 5.4 mph 8.1 mph 95 % 0.00 in
01:38 48.1 °F 46.7 °F 30.10 in ENE 4.8 mph 8.1 mph 95 % 0.00 in
01:43 48.1 °F 46.7 °F 30.10 in East 5.5 mph 8.1 mph 95 % 0.00 in
01:48 48.0 °F 46.6 °F 30.10 in East 4.0 mph 6.9 mph 95 % 0.01 in
01:53 48.0 °F 46.6 °F 30.10 in ENE 4.3 mph 7.0 mph 95 % 0.01 in
01:58 48.1 °F 46.7 °F 30.10 in ENE 4.2 mph 4.6 mph 95 % 0.01 in
02:03 48.1 °F 47.0 °F 30.10 in ENE 3.4 mph 5.8 mph 96 % 0.01 in
02:08 48.1 °F 47.0 °F 30.09 in East 4.5 mph 6.9 mph 96 % 0.01 in
02:13 48.1 °F 47.0 °F 30.09 in East 4.0 mph 6.0 mph 96 % 0.01 in
02:18 48.1 °F 47.0 °F 30.09 in ENE 4.5 mph 6.9 mph 96 % 0.01 in
02:24 48.1 °F 47.0 °F 30.09 in ENE 4.7 mph 6.9 mph 96 % 0.01 in
02:29 48.0 °F 46.9 °F 30.08 in ENE 3.4 mph 7.0 mph 96 % 0.01 in
02:34 48.0 °F 46.9 °F 30.08 in ENE 4.9 mph 8.1 mph 96 % 0.01 in
02:39 48.0 °F 46.9 °F 30.08 in East 5.5 mph 9.2 mph 96 % 0.02 in
02:44 48.0 °F 46.9 °F 30.08 in East 5.6 mph 6.9 mph 96 % 0.02 in
02:49 48.0 °F 46.9 °F 30.08 in ENE 5.2 mph 6.9 mph 96 % 0.01 in
02:54 48.0 °F 46.9 °F 30.07 in ENE 3.5 mph 4.6 mph 96 % 0.01 in
02:59 48.0 °F 46.9 °F 30.07 in ENE 5.1 mph 7.0 mph 96 % 0.01 in
03:04 48.0 °F 46.9 °F 30.07 in East 6.8 mph 9.2 mph 96 % 0.01 in
03:09 48.1 °F 47.0 °F 30.07 in East 6.8 mph 9.2 mph 96 % 0.01 in
03:14 48.1 °F 47.0 °F 30.07 in East 6.5 mph 8.1 mph 96 % 0.01 in
03:19 48.1 °F 47.0 °F 30.08 in East 6.2 mph 7.0 mph 96 % 0.01 in
03:24 48.0 °F 46.9 °F 30.07 in ENE 5.2 mph 8.1 mph 96 % 0.01 in
03:29 48.0 °F 46.9 °F 30.07 in ENE 5.5 mph 8.1 mph 96 % 0.01 in
03:34 48.0 °F 46.9 °F 30.07 in ENE 5.1 mph 6.9 mph 96 % 0.01 in
03:39 48.0 °F 46.9 °F 30.07 in East 5.0 mph 6.9 mph 96 % 0.01 in
03:44 48.0 °F 47.2 °F 30.07 in East 5.6 mph 8.1 mph 97 % 0.01 in
03:49 48.0 °F 47.2 °F 30.07 in ENE 5.7 mph 8.1 mph 97 % 0.01 in
03:54 48.0 °F 47.2 °F 30.07 in East 5.2 mph 8.1 mph 97 % 0.02 in
03:59 47.9 °F 47.1 °F 30.06 in ENE 6.1 mph 9.2 mph 97 % 0.02 in
04:04 47.9 °F 47.1 °F 30.06 in ENE 6.4 mph 10.4 mph 97 % 0.02 in
04:09 47.9 °F 47.1 °F 30.06 in ENE 6.9 mph 9.0 mph 97 % 0.02 in
04:14 48.0 °F 47.2 °F 30.07 in ENE 5.2 mph 6.9 mph 97 % 0.02 in
04:19 48.0 °F 47.2 °F 30.07 in ENE 7.5 mph 10.4 mph 97 % 0.02 in
04:24 48.1 °F 47.3 °F 30.07 in ENE 6.5 mph 11.5 mph 97 % 0.02 in
04:29 48.1 °F 47.3 °F 30.07 in ENE 6.0 mph 8.1 mph 97 % 0.02 in
04:31 48.1 °F 47.3 °F 30.07 in ENE 5.0 mph 8.0 mph 97 % 0.00 in
04:36 48.1 °F 47.3 °F 30.07 in ENE 6.0 mph 10.0 mph 97 % 0.00 in
04:41 48.2 °F 47.4 °F 30.07 in ENE 6.0 mph 9.0 mph 97 % 0.00 in
04:46 48.2 °F 47.4 °F 30.07 in East 7.0 mph 9.0 mph 97 % 0.00 in
04:51 48.2 °F 47.4 °F 30.07 in East 6.0 mph 10.0 mph 97 % 0.00 in
04:56 48.2 °F 47.4 °F 30.07 in East 7.0 mph 10.0 mph 97 % 0.00 in
05:01 48.2 °F 47.4 °F 30.07 in East 6.0 mph 9.2 mph 97 % 0.01 in
05:06 48.2 °F 47.4 °F 30.07 in ENE 5.5 mph 9.2 mph 97 % 0.01 in
05:11 48.2 °F 47.4 °F 30.07 in East 6.4 mph 9.2 mph 97 % 0.01 in
05:16 48.2 °F 47.4 °F 30.07 in NE 6.5 mph 9.2 mph 97 % 0.01 in
05:21 48.2 °F 47.4 °F 30.06 in East 6.4 mph 11.5 mph 97 % 0.01 in
05:26 48.2 °F 47.4 °F 30.06 in ENE 7.8 mph 12.7 mph 97 % 0.02 in
05:31 48.2 °F 47.4 °F 30.06 in East 7.0 mph 9.2 mph 97 % 0.02 in
05:36 48.2 °F 47.4 °F 30.07 in East 7.1 mph 11.5 mph 97 % 0.03 in
05:41 48.3 °F 47.5 °F 30.07 in ENE 9.3 mph 13.8 mph 97 % 0.03 in
05:46 48.3 °F 47.5 °F 30.07 in ENE 8.5 mph 10.4 mph 97 % 0.03 in
05:51 48.3 °F 47.5 °F 30.06 in ENE 8.4 mph 11.5 mph 97 % 0.02 in
05:56 48.4 °F 47.6 °F 30.07 in East 7.8 mph 10.4 mph 97 % 0.02 in
06:01 48.3 °F 47.5 °F 30.07 in ENE 8.6 mph 11.5 mph 97 % 0.02 in
06:06 48.3 °F 47.5 °F 30.07 in East 8.0 mph 11.5 mph 97 % 0.02 in
06:11 48.4 °F 47.6 °F 30.07 in East 8.4 mph 10.4 mph 97 % 0.02 in
06:16 48.4 °F 47.6 °F 30.07 in ENE 10.2 mph 15.0 mph 97 % 0.02 in
06:21 48.5 °F 47.7 °F 30.07 in East 9.1 mph 11.5 mph 97 % 0.02 in
06:26 48.5 °F 47.7 °F 30.07 in ENE 8.8 mph 12.7 mph 97 % 0.01 in
06:31 48.5 °F 47.7 °F 30.07 in ENE 9.0 mph 13.8 mph 97 % 0.01 in
06:36 48.5 °F 47.7 °F 30.07 in East 8.8 mph 13.8 mph 97 % 0.00 in
06:41 48.6 °F 47.8 °F 30.08 in East 9.7 mph 16.0 mph 97 % 0.00 in
06:46 48.6 °F 47.8 °F 30.08 in ENE 8.9 mph 13.8 mph 97 % 0.00 in
06:51 48.6 °F 47.8 °F 30.08 in ENE 9.4 mph 16.1 mph 97 % 0.00 in
06:56 48.7 °F 47.9 °F 30.08 in East 8.7 mph 11.0 mph 97 % 0.00 in
07:01 48.7 °F 47.9 °F 30.08 in East 9.1 mph 12.0 mph 97 % 0.00 in
07:06 48.7 °F 47.9 °F 30.08 in East 10.1 mph 16.0 mph 97 % 0.00 in
07:12 48.7 °F 47.9 °F 30.08 in ENE 9.0 mph 13.8 mph 97 % 0.00 in
07:17 48.7 °F 47.9 °F 30.08 in ENE 8.8 mph 12.7 mph 97 % 0.00 in
07:22 48.7 °F 47.9 °F 30.08 in ENE 9.5 mph 12.0 mph 97 % 0.00 in
07:27 48.7 °F 47.9 °F 30.08 in ENE 9.3 mph 12.0 mph 97 % 0.00 in
07:32 48.7 °F 47.9 °F 30.08 in East 9.6 mph 11.5 mph 97 % 0.00 in
07:37 48.8 °F 48.0 °F 30.08 in East 9.6 mph 13.8 mph 97 % 0.00 in
07:42 48.8 °F 48.0 °F 30.08 in ENE 9.9 mph 13.8 mph 97 % 0.00 in
07:47 48.9 °F 48.1 °F 30.09 in East 9.9 mph 12.7 mph 97 % 0.00 in
07:52 49.0 °F 48.2 °F 30.09 in ENE 9.3 mph 12.7 mph 97 % 0.00 in
07:57 49.0 °F 48.2 °F 30.09 in ENE 8.5 mph 11.5 mph 97 % 0.00 in
08:02 49.0 °F 48.2 °F 30.09 in ENE 10.1 mph 13.8 mph 97 % 0.00 in
08:07 49.0 °F 48.2 °F 30.09 in East 8.0 mph 10.4 mph 97 % 0.00 in
08:12 49.0 °F 48.2 °F 30.09 in East 7.6 mph 11.5 mph 97 % 0.00 in
08:17 49.0 °F 48.2 °F 30.09 in ENE 8.8 mph 11.5 mph 97 % 0.00 in
08:22 49.1 °F 48.3 °F 30.09 in ENE 8.5 mph 11.5 mph 97 % 0.00 in
08:27 49.1 °F 48.6 °F 30.09 in East 9.2 mph 12.7 mph 98 % 0.00 in
08:32 49.2 °F 48.7 °F 30.09 in East 9.0 mph 10.4 mph 98 % 0.00 in
08:37 49.2 °F 48.7 °F 30.09 in East 8.3 mph 12.7 mph 98 % 0.00 in
08:42 49.2 °F 48.7 °F 30.09 in East 8.2 mph 10.4 mph 98 % 0.00 in
08:47 49.2 °F 48.4 °F 30.09 in ENE 8.1 mph 10.4 mph 97 % 0.00 in
08:52 49.3 °F 48.5 °F 30.09 in ENE 8.4 mph 11.5 mph 97 % 0.00 in
08:57 49.3 °F 48.5 °F 30.08 in East 7.6 mph 10.4 mph 97 % 0.00 in
09:02 49.3 °F 48.5 °F 30.09 in East 7.4 mph 9.2 mph 97 % 0.00 in
09:07 49.3 °F 48.5 °F 30.09 in East 7.0 mph 8.1 mph 97 % 0.00 in
09:12 49.4 °F 48.6 °F 30.09 in East 8.3 mph 9.2 mph 97 % 0.00 in
09:17 49.5 °F 48.7 °F 30.09 in ENE 7.9 mph 10.4 mph 97 % 0.00 in
09:22 49.5 °F 48.7 °F 30.09 in East 8.2 mph 10.4 mph 97 % 0.00 in
09:27 49.5 °F 48.7 °F 30.09 in ENE 7.2 mph 9.2 mph 97 % 0.01 in
09:32 49.5 °F 48.7 °F 30.08 in East 8.1 mph 12.7 mph 97 % 0.01 in
09:37 49.4 °F 48.6 °F 30.08 in ENE 6.7 mph 10.4 mph 97 % 0.02 in
09:42 49.4 °F 48.6 °F 30.08 in ENE 7.2 mph 10.4 mph 97 % 0.02 in
09:48 49.5 °F 48.7 °F 30.08 in East 6.4 mph 8.1 mph 97 % 0.02 in
09:53 49.5 °F 48.7 °F 30.08 in East 7.6 mph 9.2 mph 97 % 0.02 in
09:58 49.6 °F 48.8 °F 30.09 in NE 8.7 mph 12.7 mph 97 % 0.02 in
10:03 49.6 °F 48.8 °F 30.08 in East 9.9 mph 13.8 mph 97 % 0.02 in
10:08 49.6 °F 48.8 °F 30.08 in East 8.0 mph 9.2 mph 97 % 0.02 in
10:13 49.5 °F 48.7 °F 30.08 in ENE 7.4 mph 9.2 mph 97 % 0.04 in
10:18 49.6 °F 48.8 °F 30.08 in ENE 7.3 mph 9.2 mph 97 % 0.06 in
10:23 49.5 °F 48.7 °F 30.08 in East 6.9 mph 9.2 mph 97 % 0.08 in
10:28 49.6 °F 48.8 °F 30.09 in East 6.0 mph 6.9 mph 97 % 0.08 in
10:33 49.6 °F 48.8 °F 30.08 in East 6.5 mph 8.1 mph 97 % 0.08 in
10:38 49.6 °F 48.8 °F 30.08 in East 7.3 mph 8.1 mph 97 % 0.08 in
10:43 49.7 °F 48.9 °F 30.08 in ESE 6.0 mph 8.1 mph 97 % 0.08 in
10:48 49.6 °F 48.8 °F 30.08 in East 6.8 mph 9.2 mph 97 % 0.08 in
10:53 49.7 °F 48.9 °F 30.08 in East 6.4 mph 8.1 mph 97 % 0.08 in
10:58 49.7 °F 48.9 °F 30.08 in East 7.0 mph 8.1 mph 97 % 0.08 in
11:03 49.7 °F 48.9 °F 30.08 in East 5.8 mph 8.1 mph 97 % 0.08 in
11:08 49.7 °F 49.2 °F 30.08 in East 7.0 mph 8.1 mph 98 % 0.08 in
11:13 49.8 °F 49.3 °F 30.09 in East 8.6 mph 11.0 mph 98 % 0.06 in
11:14 49.9 °F 49.4 °F 30.09 in East 8.4 mph 11.5 mph 98 % 0.06 in
11:19 50.0 °F 49.5 °F 30.09 in East 7.5 mph 10.4 mph 98 % 0.05 in
11:21 50.0 °F 49.5 °F 30.09 in East 7.5 mph 9.2 mph 98 % 0.04 in
11:26 50.1 °F 49.6 °F 30.08 in East 7.8 mph 8.1 mph 98 % 0.03 in
11:31 50.2 °F 49.7 °F 30.07 in ENE 7.1 mph 9.2 mph 98 % 0.02 in
11:36 50.3 °F 49.8 °F 30.08 in East 7.3 mph 8.0 mph 98 % 0.03 in
11:41 50.4 °F 49.9 °F 30.08 in ENE 7.5 mph 9.2 mph 98 % 0.02 in
11:46 50.5 °F 50.0 °F 30.08 in East 8.5 mph 9.2 mph 98 % 0.02 in
11:51 50.6 °F 50.1 °F 30.07 in East 8.0 mph 10.4 mph 98 % 0.02 in
11:56 50.8 °F 50.3 °F 30.07 in East 9.2 mph 13.8 mph 98 % 0.02 in
12:01 50.8 °F 50.3 °F 30.07 in East 9.4 mph 11.5 mph 98 % 0.02 in
12:06 50.8 °F 50.3 °F 30.06 in East 7.6 mph 10.4 mph 98 % 0.02 in
12:11 50.6 °F 50.1 °F 30.06 in East 8.9 mph 13.0 mph 98 % 0.02 in
12:16 50.5 °F 50.0 °F 30.06 in East 8.5 mph 11.5 mph 98 % 0.01 in
12:21 50.3 °F 49.8 °F 30.06 in East 8.3 mph 9.2 mph 98 % 0.01 in
12:26 50.3 °F 49.5 °F 30.06 in East 9.0 mph 13.0 mph 97 % 0.01 in
12:31 50.4 °F 49.9 °F 30.05 in East 8.7 mph 12.7 mph 98 % 0.00 in
12:36 50.5 °F 50.0 °F 30.05 in East 8.1 mph 9.2 mph 98 % 0.00 in
12:41 50.6 °F 50.1 °F 30.05 in East 7.7 mph 10.4 mph 98 % 0.00 in
12:46 50.7 °F 50.2 °F 30.06 in East 10.0 mph 13.8 mph 98 % 0.00 in
12:51 50.9 °F 50.4 °F 30.06 in East 8.1 mph 15.0 mph 98 % 0.02 in
12:56 51.0 °F 50.5 °F 30.06 in East 8.7 mph 11.5 mph 98 % 0.02 in
13:01 51.2 °F 50.7 °F 30.05 in East 8.4 mph 10.4 mph 98 % 0.04 in
13:06 51.3 °F 50.8 °F 30.05 in East 7.9 mph 11.5 mph 98 % 0.04 in
13:11 51.4 °F 50.9 °F 30.05 in East 7.3 mph 10.4 mph 98 % 0.04 in
13:16 51.4 °F 50.9 °F 30.04 in East 8.8 mph 10.4 mph 98 % 0.04 in
13:21 51.3 °F 50.8 °F 30.04 in ENE 7.7 mph 9.2 mph 98 % 0.04 in
13:26 51.2 °F 50.7 °F 30.04 in ENE 7.1 mph 9.2 mph 98 % 0.04 in
13:31 51.2 °F 50.7 °F 30.03 in ENE 7.9 mph 10.4 mph 98 % 0.04 in
13:32 51.2 °F 50.7 °F 30.03 in ENE 7.4 mph 10.4 mph 98 % 0.04 in
13:37 51.1 °F 50.6 °F 30.03 in East 6.9 mph 9.2 mph 98 % 0.04 in
13:42 51.0 °F 50.5 °F 30.03 in ENE 7.4 mph 9.2 mph 98 % 0.04 in
13:47 50.8 °F 50.0 °F 30.02 in East 7.6 mph 9.2 mph 97 % 0.03 in
13:52 50.7 °F 49.9 °F 30.03 in East 7.4 mph 9.2 mph 97 % 0.02 in
13:57 50.7 °F 49.9 °F 30.03 in East 7.3 mph 9.2 mph 97 % 0.01 in
14:02 50.6 °F 50.1 °F 30.03 in East 8.5 mph 10.4 mph 98 % 0.00 in
14:07 50.5 °F 50.0 °F 30.03 in East 7.6 mph 12.7 mph 98 % 0.00 in
14:12 50.5 °F 50.0 °F 30.02 in East 6.1 mph 8.1 mph 98 % 0.00 in
14:17 50.6 °F 50.1 °F 30.02 in ENE 7.2 mph 9.2 mph 98 % 0.00 in
14:22 50.9 °F 50.4 °F 30.02 in East 6.9 mph 9.2 mph 98 % 0.01 in
14:27 51.0 °F 50.5 °F 30.02 in East 8.0 mph 11.0 mph 98 % 0.01 in
14:32 50.9 °F 50.4 °F 30.02 in East 8.0 mph 9.2 mph 98 % 0.01 in
14:38 50.7 °F 50.2 °F 30.02 in ENE 7.4 mph 9.2 mph 98 % 0.01 in
14:43 50.6 °F 50.1 °F 30.01 in East 8.0 mph 9.2 mph 98 % 0.01 in
14:48 50.6 °F 50.1 °F 30.01 in ENE 6.3 mph 9.2 mph 98 % 0.01 in
14:53 50.7 °F 50.2 °F 30.01 in East 7.2 mph 9.2 mph 98 % 0.01 in
14:58 50.8 °F 50.3 °F 30.00 in ENE 7.8 mph 10.4 mph 98 % 0.01 in
15:03 50.8 °F 50.3 °F 30.00 in East 8.0 mph 10.4 mph 98 % 0.01 in
15:08 50.7 °F 50.2 °F 30.01 in East 6.8 mph 9.0 mph 98 % 0.01 in
15:13 50.7 °F 50.2 °F 30.00 in East 6.7 mph 8.1 mph 98 % 0.01 in
15:18 50.6 °F 50.1 °F 30.00 in East 6.9 mph 9.2 mph 98 % 0.01 in
15:23 50.6 °F 50.1 °F 30.00 in East 6.3 mph 8.0 mph 98 % 0.00 in
15:28 50.6 °F 50.1 °F 30.00 in East 5.8 mph 9.2 mph 98 % 0.00 in
15:33 50.6 °F 50.1 °F 30.00 in East 7.0 mph 9.2 mph 98 % 0.00 in
15:39 50.6 °F 50.1 °F 29.99 in ENE 6.9 mph 8.1 mph 98 % 0.00 in
15:44 50.6 °F 50.1 °F 29.99 in ENE 5.6 mph 8.1 mph 98 % 0.00 in
15:49 50.6 °F 50.1 °F 29.98 in ENE 6.8 mph 9.2 mph 98 % 0.00 in
15:54 50.6 °F 50.1 °F 29.98 in East 8.4 mph 10.4 mph 98 % 0.00 in
15:59 50.6 °F 50.1 °F 29.98 in East 7.5 mph 9.2 mph 98 % 0.00 in
16:04 50.5 °F 50.0 °F 29.98 in East 7.1 mph 9.2 mph 98 % 0.00 in
16:09 50.4 °F 49.9 °F 29.97 in East 6.7 mph 9.2 mph 98 % 0.00 in
16:14 50.3 °F 49.8 °F 29.97 in ENE 7.2 mph 9.0 mph 98 % 0.00 in
16:19 50.3 °F 49.8 °F 29.96 in East 7.5 mph 9.2 mph 98 % 0.00 in
16:24 50.3 °F 49.8 °F 29.96 in East 7.8 mph 10.4 mph 98 % 0.00 in
16:29 50.3 °F 49.8 °F 29.97 in ENE 6.5 mph 10.4 mph 98 % 0.00 in
16:34 50.4 °F 49.9 °F 29.96 in East 8.6 mph 11.5 mph 98 % 0.00 in
16:39 50.4 °F 49.9 °F 29.96 in East 9.3 mph 10.4 mph 98 % 0.00 in
16:45 50.4 °F 49.9 °F 29.97 in East 8.5 mph 11.5 mph 98 % 0.00 in
16:50 50.4 °F 49.9 °F 29.96 in East 8.1 mph 10.4 mph 98 % 0.00 in
16:55 50.4 °F 49.9 °F 29.96 in East 6.7 mph 9.0 mph 98 % 0.00 in
17:00 50.4 °F 49.9 °F 29.96 in East 8.2 mph 10.4 mph 98 % 0.00 in
17:05 50.4 °F 49.9 °F 29.96 in East 9.7 mph 12.7 mph 98 % 0.01 in
17:10 50.3 °F 49.8 °F 29.96 in East 9.5 mph 12.7 mph 98 % 0.01 in
17:15 50.3 °F 49.8 °F 29.96 in East 7.7 mph 10.4 mph 98 % 0.01 in
17:20 50.3 °F 49.8 °F 29.95 in East 7.5 mph 10.4 mph 98 % 0.02 in
17:25 50.3 °F 49.8 °F 29.94 in ENE 8.7 mph 10.4 mph 98 % 0.02 in
17:30 50.3 °F 49.8 °F 29.94 in NE 8.3 mph 12.7 mph 98 % 0.02 in
17:36 50.3 °F 49.8 °F 29.94 in ENE 8.0 mph 14.0 mph 98 % 0.01 in
17:40 50.3 °F 49.8 °F 29.93 in ENE 9.5 mph 11.5 mph 98 % 0.03 in
17:46 50.3 °F 49.8 °F 29.94 in ENE 9.0 mph 13.0 mph 98 % 0.00 in
17:51 50.2 °F 49.7 °F 29.94 in East 8.0 mph 12.0 mph 98 % 0.00 in
17:56 50.1 °F 49.6 °F 29.94 in East 9.0 mph 12.0 mph 98 % 0.00 in
18:01 50.1 °F 49.6 °F 29.94 in ESE 8.2 mph 10.4 mph 98 % 0.06 in
18:06 50.0 °F 49.5 °F 29.94 in East 7.1 mph 12.7 mph 98 % 0.05 in
18:11 49.9 °F 49.4 °F 29.94 in East 6.7 mph 11.5 mph 98 % 0.06 in
18:16 49.9 °F 49.4 °F 29.94 in East 6.8 mph 8.1 mph 98 % 0.06 in
18:21 49.9 °F 49.4 °F 29.94 in East 7.5 mph 12.7 mph 98 % 0.06 in
18:26 49.9 °F 49.4 °F 29.94 in East 8.5 mph 11.5 mph 98 % 0.06 in
18:31 49.8 °F 49.3 °F 29.94 in East 8.7 mph 10.4 mph 98 % 0.07 in
18:36 49.8 °F 49.3 °F 29.94 in East 7.5 mph 11.5 mph 98 % 0.06 in
18:41 49.7 °F 49.2 °F 29.93 in East 8.3 mph 11.5 mph 98 % 0.06 in
18:46 49.7 °F 49.2 °F 29.93 in East 8.1 mph 11.5 mph 98 % 0.05 in
18:51 49.6 °F 49.1 °F 29.93 in East 7.7 mph 10.4 mph 98 % 0.04 in
18:56 49.6 °F 49.1 °F 29.93 in East 7.6 mph 8.1 mph 98 % 0.04 in
19:01 49.6 °F 49.1 °F 29.92 in East 6.9 mph 9.0 mph 98 % 0.04 in
19:07 49.6 °F 49.1 °F 29.92 in East 7.4 mph 9.2 mph 98 % 0.05 in
19:12 49.6 °F 49.1 °F 29.92 in East 7.0 mph 9.2 mph 98 % 0.04 in
19:17 49.6 °F 49.1 °F 29.92 in East 7.7 mph 9.2 mph 98 % 0.04 in
19:22 49.6 °F 49.1 °F 29.91 in East 6.9 mph 10.4 mph 98 % 0.04 in
19:27 49.6 °F 49.1 °F 29.91 in ENE 7.9 mph 11.0 mph 98 % 0.05 in
19:32 49.7 °F 49.2 °F 29.91 in ENE 10.5 mph 12.7 mph 98 % 0.05 in
19:33 49.7 °F 49.2 °F 29.91 in East 8.6 mph 12.7 mph 98 % 0.05 in
19:38 49.9 °F 49.4 °F 29.91 in East 8.7 mph 11.5 mph 98 % 0.07 in
19:43 49.9 °F 49.4 °F 29.91 in East 8.4 mph 12.7 mph 98 % 0.08 in
19:48 50.0 °F 49.5 °F 29.91 in ENE 11.3 mph 16.1 mph 98 % 0.08 in
19:53 50.1 °F 49.6 °F 29.90 in East 9.9 mph 13.8 mph 98 % 0.10 in
19:58 50.2 °F 49.7 °F 29.90 in ENE 11.7 mph 17.3 mph 98 % 0.10 in
20:03 50.2 °F 49.7 °F 29.90 in East 11.5 mph 16.1 mph 98 % 0.09 in
20:08 50.2 °F 49.7 °F 29.90 in ENE 11.5 mph 18.4 mph 98 % 0.10 in
20:13 50.3 °F 49.8 °F 29.91 in ENE 9.0 mph 13.0 mph 98 % 0.10 in
20:18 50.3 °F 49.8 °F 29.91 in East 9.1 mph 11.5 mph 98 % 0.10 in
20:24 50.2 °F 49.7 °F 29.91 in East 9.0 mph 13.0 mph 98 % 0.11 in
20:29 50.1 °F 49.6 °F 29.91 in East 9.3 mph 13.8 mph 98 % 0.11 in
20:34 49.9 °F 49.4 °F 29.90 in East 9.7 mph 12.7 mph 98 % 0.09 in
20:39 49.9 °F 49.4 °F 29.91 in East 7.9 mph 10.4 mph 98 % 0.09 in
20:44 49.9 °F 49.4 °F 29.90 in East 8.6 mph 12.7 mph 98 % 0.09 in
20:49 50.0 °F 49.5 °F 29.90 in East 9.4 mph 11.5 mph 98 % 0.10 in
20:54 49.9 °F 49.4 °F 29.90 in East 9.4 mph 12.7 mph 98 % 0.10 in
20:59 49.9 °F 49.4 °F 29.90 in East 8.4 mph 10.4 mph 98 % 0.11 in
21:04 49.8 °F 49.3 °F 29.90 in East 9.0 mph 11.5 mph 98 % 0.11 in
21:09 49.7 °F 49.2 °F 29.90 in East 7.0 mph 11.5 mph 98 % 0.11 in
21:15 49.7 °F 49.2 °F 29.90 in East 8.0 mph 10.4 mph 98 % 0.11 in
21:20 49.6 °F 49.1 °F 29.90 in East 9.0 mph 11.5 mph 98 % 0.11 in
21:25 49.6 °F 49.1 °F 29.90 in ESE 9.0 mph 11.5 mph 98 % 0.10 in
21:30 49.6 °F 49.1 °F 29.89 in East 8.4 mph 11.5 mph 98 % 0.09 in
21:35 49.6 °F 49.1 °F 29.89 in ENE 9.7 mph 13.8 mph 98 % 0.09 in
21:40 49.6 °F 49.1 °F 29.89 in East 8.6 mph 11.5 mph 98 % 0.09 in
21:45 49.6 °F 49.1 °F 29.89 in East 10.4 mph 13.0 mph 98 % 0.08 in
21:50 49.6 °F 49.1 °F 29.89 in East 8.7 mph 10.4 mph 98 % 0.07 in
21:55 49.7 °F 49.2 °F 29.89 in East 8.7 mph 11.5 mph 98 % 0.04 in
22:00 49.7 °F 49.2 °F 29.89 in ENE 9.8 mph 12.7 mph 98 % 0.03 in
22:05 49.6 °F 49.1 °F 29.88 in ENE 9.5 mph 12.7 mph 98 % 0.03 in
22:11 49.7 °F 49.2 °F 29.88 in East 9.5 mph 11.5 mph 98 % 0.03 in
22:16 49.7 °F 49.2 °F 29.88 in East 10.0 mph 13.0 mph 98 % 0.00 in
22:21 49.7 °F 49.2 °F 29.88 in East 9.0 mph 15.0 mph 98 % 0.00 in
22:26 49.7 °F 49.2 °F 29.87 in East 10.0 mph 20.0 mph 98 % 0.00 in
22:31 49.7 °F 49.2 °F 29.87 in East 9.4 mph 11.5 mph 98 % 0.02 in
22:36 49.6 °F 49.1 °F 29.87 in East 10.0 mph 13.0 mph 98 % 0.00 in
22:41 49.6 °F 49.1 °F 29.87 in East 10.0 mph 18.0 mph 98 % 0.00 in
22:46 49.6 °F 49.1 °F 29.87 in East 10.0 mph 15.0 mph 98 % 0.00 in
22:51 49.6 °F 49.1 °F 29.87 in East 10.0 mph 15.0 mph 98 % 0.00 in
22:56 49.6 °F 49.1 °F 29.87 in East 10.0 mph 14.0 mph 98 % 0.00 in
23:01 49.5 °F 49.0 °F 29.86 in East 9.2 mph 11.5 mph 98 % 0.01 in
23:06 49.5 °F 49.0 °F 29.86 in East 8.5 mph 12.7 mph 98 % 0.01 in
23:11 49.5 °F 49.0 °F 29.86 in East 8.8 mph 11.5 mph 98 % 0.00 in
23:16 49.4 °F 48.9 °F 29.86 in East 8.8 mph 12.7 mph 98 % 0.01 in
23:21 49.4 °F 48.9 °F 29.86 in East 8.4 mph 11.5 mph 98 % 0.01 in
23:26 49.4 °F 48.9 °F 29.86 in East 8.8 mph 10.4 mph 98 % 0.01 in
23:31 49.3 °F 48.8 °F 29.86 in ENE 9.0 mph 11.5 mph 98 % 0.01 in
23:36 49.3 °F 48.8 °F 29.86 in East 8.7 mph 12.7 mph 98 % 0.01 in
23:41 49.3 °F 48.8 °F 29.85 in East 8.2 mph 11.0 mph 98 % 0.01 in
23:46 49.3 °F 48.8 °F 29.85 in ENE 9.0 mph 11.5 mph 98 % 0.01 in
23:51 49.3 °F 48.8 °F 29.85 in East 9.3 mph 12.7 mph 98 % 0.02 in
23:56 49.4 °F 48.9 °F 29.85 in East 9.0 mph 13.8 mph 98 % 0.02 in
Crab Meadow Weather
Compliments of Weather Underground - 3 mb

Script developed by  Jim McMurry - jmcmurry@mwt.net Adapted for the template by  Wim van der Kuil - Leuven-Template.eu

Recycling: If every American home replaced just one light bulb with an ENERGY STAR qualified bulb, we would save enough energy to light more than 3 million homes for a year, more than $600 million in annual energy costs, and prevent greenhouse gases equivalent to the emissions of more than 800,000 cars.